Terminal Aerodrome Forecast
Issued by NWS

Home | Current Version | Previous Version | Text Only | Print | Product List | Glossary Off
Versions: 1 2 3 4 5 6 7 8 9 10 11 12 13 14 15 16 17 18 19

000
FTUS43 KTOP 031120
TAFFOE
TAF
KFOE 031120Z 0312/0412 06004KT P6SM OVC140
     FM032100 11005KT P6SM VCSH OVC070
     FM040000 10004KT 6SM -SHRA OVC045
     FM040400 14004KT 2SM -SHRA OVC025
     FM040700 17004KT 1 1/2SM -SHRA OVC010=

USA.gov is the U.S. government's official web portal to all federal, state and local government web resources and services.